<?xml version="1.0" encoding="UTF-8" standalone="no" ?>
<gpx xmlns="http://www.topografix.com/GPX/1/1" xmlns:xsi="http://www.w3.org/2001/XMLSchema-instance" xsi:schemaLocation="http://www.topografix.com/GPX/1/1 http://www.topografix.com/GPX/1/1/gpx.xsd" version="1.1" creator="VisuGPX - https://www.visugpx.com">
  <metadata>
    <name>Clermont-Ferrand - Massat - Pau par François</name>
    <desc><![CDATA[Trajet effectué par François sur la "Diagonale du vide" en aout 2020]]></desc>
  </metadata>
  <trk>
    <name><![CDATA[route116]]></name>
    <trkseg>
      <trkpt lat="42.80457" lon="2.2354">
        <ele>404.6</ele>
        <time>2020-08-29T06:05:59Z</time>
      </trkpt>
      <trkpt lat="42.80552" lon="2.23595">
        <ele>402.2</ele>
        <time>2020-08-29T06:07:29Z</time>
      </trkpt>
      <trkpt lat="42.80629" lon="2.23677">
        <ele>400.6</ele>
        <time>2020-08-29T06:07:54Z</time>
      </trkpt>
      <trkpt lat="42.80728" lon="2.23676">
        <ele>400.1</ele>
        <time>2020-08-29T06:08:19Z</time>
      </trkpt>
      <trkpt lat="42.80819" lon="2.23622">
        <ele>399.7</ele>
        <time>2020-08-29T06:08:39Z</time>
      </trkpt>
      <trkpt lat="42.80919" lon="2.23572">
        <ele>399.6</ele>
        <time>2020-08-29T06:09:04Z</time>
      </trkpt>
      <trkpt lat="42.81011" lon="2.2362">
        <ele>399.6</ele>
        <time>2020-08-29T06:09:24Z</time>
      </trkpt>
      <trkpt lat="42.81083" lon="2.23706">
        <ele>399.4</ele>
        <time>2020-08-29T06:09:44Z</time>
      </trkpt>
      <trkpt lat="42.81146" lon="2.23798">
        <ele>399.1</ele>
        <time>2020-08-29T06:10:04Z</time>
      </trkpt>
      <trkpt lat="42.81229" lon="2.2385">
        <ele>398.3</ele>
        <time>2020-08-29T06:10:24Z</time>
      </trkpt>
      <trkpt lat="42.81258" lon="2.23729">
        <ele>397.2</ele>
        <time>2020-08-29T06:10:44Z</time>
      </trkpt>
      <trkpt lat="42.81264" lon="2.23581">
        <ele>396.6</ele>
        <time>2020-08-29T06:11:04Z</time>
      </trkpt>
      <trkpt lat="42.81302" lon="2.23449">
        <ele>396.3</ele>
        <time>2020-08-29T06:11:24Z</time>
      </trkpt>
      <trkpt lat="42.81376" lon="2.23346">
        <ele>396</ele>
        <time>2020-08-29T06:11:44Z</time>
      </trkpt>
      <trkpt lat="42.81435" lon="2.23247">
        <ele>394.1</ele>
        <time>2020-08-29T06:11:59Z</time>
      </trkpt>
      <trkpt lat="42.8144" lon="2.2311">
        <ele>391.8</ele>
        <time>2020-08-29T06:12:19Z</time>
      </trkpt>
      <trkpt lat="42.81431" lon="2.2297">
        <ele>388.5</ele>
        <time>2020-08-29T06:12:44Z</time>
      </trkpt>
      <trkpt lat="42.81462" lon="2.22823">
        <ele>389.5</ele>
        <time>2020-08-29T06:13:09Z</time>
      </trkpt>
      <trkpt lat="42.81543" lon="2.22771">
        <ele>392.1</ele>
        <time>2020-08-29T06:13:29Z</time>
      </trkpt>
      <trkpt lat="42.81454" lon="2.22687">
        <ele>386.6</ele>
        <time>2020-08-29T06:14:51Z</time>
      </trkpt>
      <trkpt lat="42.81439" lon="2.22554">
        <ele>386.6</ele>
        <time>2020-08-29T06:15:21Z</time>
      </trkpt>
      <trkpt lat="42.81497" lon="2.22449">
        <ele>387.9</ele>
        <time>2020-08-29T06:15:46Z</time>
      </trkpt>
      <trkpt lat="42.81524" lon="2.22327">
        <ele>388.7</ele>
        <time>2020-08-29T06:16:11Z</time>
      </trkpt>
      <trkpt lat="42.81556" lon="2.22213">
        <ele>391.9</ele>
        <time>2020-08-29T06:16:36Z</time>
      </trkpt>
      <trkpt lat="42.81467" lon="2.22165">
        <ele>394.4</ele>
        <time>2020-08-29T06:17:06Z</time>
      </trkpt>
      <trkpt lat="42.81446" lon="2.22038">
        <ele>400.1</ele>
        <time>2020-08-29T06:17:52Z</time>
      </trkpt>
      <trkpt lat="42.8153" lon="2.21978">
        <ele>404.6</ele>
        <time>2020-08-29T06:18:32Z</time>
      </trkpt>
      <trkpt lat="42.81526" lon="2.21838">
        <ele>405.9</ele>
        <time>2020-08-29T06:19:12Z</time>
      </trkpt>
      <trkpt lat="42.81565" lon="2.21713">
        <ele>406.8</ele>
        <time>2020-08-29T06:19:52Z</time>
      </trkpt>
      <trkpt lat="42.81614" lon="2.21609">
        <ele>407.7</ele>
        <time>2020-08-29T06:20:27Z</time>
      </trkpt>
      <trkpt lat="42.816" lon="2.21472">
        <ele>408.1</ele>
        <time>2020-08-29T06:21:02Z</time>
      </trkpt>
      <trkpt lat="42.81612" lon="2.21332">
        <ele>408.5</ele>
        <time>2020-08-29T06:21:42Z</time>
      </trkpt>
      <trkpt lat="42.81624" lon="2.212">
        <ele>409</ele>
        <time>2020-08-29T06:22:17Z</time>
      </trkpt>
      <trkpt lat="42.81592" lon="2.21079">
        <ele>409.4</ele>
        <time>2020-08-29T06:22:52Z</time>
      </trkpt>
      <trkpt lat="42.8163" lon="2.20953">
        <ele>410.2</ele>
        <time>2020-08-29T06:23:37Z</time>
      </trkpt>
      <trkpt lat="42.81693" lon="2.20861">
        <ele>411.5</ele>
        <time>2020-08-29T06:24:16Z</time>
      </trkpt>
      <trkpt lat="42.81703" lon="2.20733">
        <ele>411.6</ele>
        <time>2020-08-29T06:24:51Z</time>
      </trkpt>
      <trkpt lat="42.81724" lon="2.20608">
        <ele>412.5</ele>
        <time>2020-08-29T06:25:26Z</time>
      </trkpt>
      <trkpt lat="42.81749" lon="2.20484">
        <ele>411.5</ele>
        <time>2020-08-29T06:26:01Z</time>
      </trkpt>
      <trkpt lat="42.81665" lon="2.20424">
        <ele>410.6</ele>
        <time>2020-08-29T06:26:36Z</time>
      </trkpt>
      <trkpt lat="42.81674" lon="2.20299">
        <ele>411.9</ele>
        <time>2020-08-29T06:27:11Z</time>
      </trkpt>
      <trkpt lat="42.81622" lon="2.20187">
        <ele>413</ele>
        <time>2020-08-29T06:27:52Z</time>
      </trkpt>
      <trkpt lat="42.8163" lon="2.2006">
        <ele>415.3</ele>
        <time>2020-08-29T06:28:32Z</time>
      </trkpt>
      <trkpt lat="42.81721" lon="2.20019">
        <ele>418.2</ele>
        <time>2020-08-29T06:29:17Z</time>
      </trkpt>
      <trkpt lat="42.81795" lon="2.19946">
        <ele>420.5</ele>
        <time>2020-08-29T06:30:07Z</time>
      </trkpt>
      <trkpt lat="42.81865" lon="2.19858">
        <ele>422</ele>
        <time>2020-08-29T06:30:47Z</time>
      </trkpt>
      <trkpt lat="42.81871" lon="2.19727">
        <ele>424.5</ele>
        <time>2020-08-29T06:31:37Z</time>
      </trkpt>
      <trkpt lat="42.81901" lon="2.19602">
        <ele>428.4</ele>
        <time>2020-08-29T06:32:17Z</time>
      </trkpt>
      <trkpt lat="42.81974" lon="2.19525">
        <ele>432.7</ele>
        <time>2020-08-29T06:32:52Z</time>
      </trkpt>
      <trkpt lat="42.81992" lon="2.19397">
        <ele>435.9</ele>
        <time>2020-08-29T06:33:27Z</time>
      </trkpt>
      <trkpt lat="42.82079" lon="2.19345">
        <ele>436.8</ele>
        <time>2020-08-29T06:34:07Z</time>
      </trkpt>
      <trkpt lat="42.82171" lon="2.19327">
        <ele>437.9</ele>
        <time>2020-08-29T06:34:47Z</time>
      </trkpt>
      <trkpt lat="42.82132" lon="2.192">
        <ele>439.1</ele>
        <time>2020-08-29T06:35:32Z</time>
      </trkpt>
      <trkpt lat="42.82066" lon="2.19112">
        <ele>439.9</ele>
        <time>2020-08-29T06:36:12Z</time>
      </trkpt>
      <trkpt lat="42.82147" lon="2.19045">
        <ele>443.9</ele>
        <time>2020-08-29T06:36:57Z</time>
      </trkpt>
      <trkpt lat="42.82133" lon="2.18918">
        <ele>448.6</ele>
        <time>2020-08-29T06:37:57Z</time>
      </trkpt>
      <trkpt lat="42.82142" lon="2.18791">
        <ele>450.5</ele>
        <time>2020-08-29T06:38:37Z</time>
      </trkpt>
      <trkpt lat="42.822" lon="2.18683">
        <ele>452.8</ele>
        <time>2020-08-29T06:39:12Z</time>
      </trkpt>
      <trkpt lat="42.82169" lon="2.18558">
        <ele>454</ele>
        <time>2020-08-29T06:39:47Z</time>
      </trkpt>
      <trkpt lat="42.82189" lon="2.18425">
        <ele>454.4</ele>
        <time>2020-08-29T06:40:22Z</time>
      </trkpt>
      <trkpt lat="42.8226" lon="2.18339">
        <ele>455.7</ele>
        <time>2020-08-29T06:40:52Z</time>
      </trkpt>
      <trkpt lat="42.82293" lon="2.18215">
        <ele>456.6</ele>
        <time>2020-08-29T06:41:22Z</time>
      </trkpt>
      <trkpt lat="42.82308" lon="2.18093">
        <ele>456.1</ele>
        <time>2020-08-29T06:41:52Z</time>
      </trkpt>
      <trkpt lat="42.82315" lon="2.17953">
        <ele>456.1</ele>
        <time>2020-08-29T06:42:27Z</time>
      </trkpt>
      <trkpt lat="42.82358" lon="2.17839">
        <ele>458.1</ele>
        <time>2020-08-29T06:43:02Z</time>
      </trkpt>
      <trkpt lat="42.82378" lon="2.17706">
        <ele>460.7</ele>
        <time>2020-08-29T06:43:42Z</time>
      </trkpt>
      <trkpt lat="42.82402" lon="2.17587">
        <ele>462</ele>
        <time>2020-08-29T06:44:17Z</time>
      </trkpt>
      <trkpt lat="42.82345" lon="2.17475">
        <ele>463.9</ele>
        <time>2020-08-29T06:44:57Z</time>
      </trkpt>
      <trkpt lat="42.8237" lon="2.17353">
        <ele>465.4</ele>
        <time>2020-08-29T06:45:32Z</time>
      </trkpt>
      <trkpt lat="42.82389" lon="2.17225">
        <ele>467.1</ele>
        <time>2020-08-29T06:46:12Z</time>
      </trkpt>
      <trkpt lat="42.82376" lon="2.17086">
        <ele>468.9</ele>
        <time>2020-08-29T06:46:52Z</time>
      </trkpt>
      <trkpt lat="42.82401" lon="2.16957">
        <ele>470.3</ele>
        <time>2020-08-29T06:47:27Z</time>
      </trkpt>
      <trkpt lat="42.82401" lon="2.16829">
        <ele>471.6</ele>
        <time>2020-08-29T06:47:57Z</time>
      </trkpt>
      <trkpt lat="42.82386" lon="2.16706">
        <ele>472.7</ele>
        <time>2020-08-29T06:48:27Z</time>
      </trkpt>
      <trkpt lat="42.82374" lon="2.16574">
        <ele>474.4</ele>
        <time>2020-08-29T06:49:07Z</time>
      </trkpt>
      <trkpt lat="42.82359" lon="2.16445">
        <ele>475.4</ele>
        <time>2020-08-29T06:49:42Z</time>
      </trkpt>
      <trkpt lat="42.82322" lon="2.16322">
        <ele>476.5</ele>
        <time>2020-08-29T06:50:22Z</time>
      </trkpt>
      <trkpt lat="42.82316" lon="2.16195">
        <ele>478.1</ele>
        <time>2020-08-29T06:51:07Z</time>
      </trkpt>
      <trkpt lat="42.82334" lon="2.16062">
        <ele>479.8</ele>
        <time>2020-08-29T06:52:03Z</time>
      </trkpt>
      <trkpt lat="42.82368" lon="2.15943">
        <ele>481</ele>
        <time>2020-08-29T06:52:43Z</time>
      </trkpt>
      <trkpt lat="42.82354" lon="2.1581">
        <ele>482.1</ele>
        <time>2020-08-29T06:53:23Z</time>
      </trkpt>
      <trkpt lat="42.82311" lon="2.15684">
        <ele>483.2</ele>
        <time>2020-08-29T06:54:03Z</time>
      </trkpt>
      <trkpt lat="42.82306" lon="2.15534">
        <ele>485</ele>
        <time>2020-08-29T06:54:33Z</time>
      </trkpt>
      <trkpt lat="42.82261" lon="2.15407">
        <ele>485.4</ele>
        <time>2020-08-29T06:54:58Z</time>
      </trkpt>
      <trkpt lat="42.82268" lon="2.15283">
        <ele>485.6</ele>
        <time>2020-08-29T06:55:28Z</time>
      </trkpt>
      <trkpt lat="42.82276" lon="2.15157">
        <ele>486.2</ele>
        <time>2020-08-29T06:56:03Z</time>
      </trkpt>
      <trkpt lat="42.8228" lon="2.15025">
        <ele>486.9</ele>
        <time>2020-08-29T06:56:38Z</time>
      </trkpt>
      <trkpt lat="42.82327" lon="2.14917">
        <ele>487.5</ele>
        <time>2020-08-29T06:57:08Z</time>
      </trkpt>
      <trkpt lat="42.82348" lon="2.14786">
        <ele>488.2</ele>
        <time>2020-08-29T06:57:43Z</time>
      </trkpt>
      <trkpt lat="42.82337" lon="2.14662">
        <ele>489</ele>
        <time>2020-08-29T06:58:13Z</time>
      </trkpt>
      <trkpt lat="42.82334" lon="2.14538">
        <ele>489.8</ele>
        <time>2020-08-29T06:58:43Z</time>
      </trkpt>
      <trkpt lat="42.82389" lon="2.1442">
        <ele>490.8</ele>
        <time>2020-08-29T06:59:18Z</time>
      </trkpt>
      <trkpt lat="42.82487" lon="2.14384">
        <ele>492</ele>
        <time>2020-08-29T06:59:53Z</time>
      </trkpt>
      <trkpt lat="42.82571" lon="2.14324">
        <ele>497.6</ele>
        <time>2020-08-29T07:00:23Z</time>
      </trkpt>
      <trkpt lat="42.82659" lon="2.14289">
        <ele>503.7</ele>
        <time>2020-08-29T07:00:53Z</time>
      </trkpt>
      <trkpt lat="42.8275" lon="2.14263">
        <ele>508.1</ele>
        <time>2020-08-29T07:01:23Z</time>
      </trkpt>
      <trkpt lat="42.82805" lon="2.14159">
        <ele>512.4</ele>
        <time>2020-08-29T07:01:53Z</time>
      </trkpt>
      <trkpt lat="42.82783" lon="2.14027">
        <ele>514.8</ele>
        <time>2020-08-29T07:02:23Z</time>
      </trkpt>
      <trkpt lat="42.82781" lon="2.13893">
        <ele>516.6</ele>
        <time>2020-08-29T07:02:53Z</time>
      </trkpt>
      <trkpt lat="42.8282" lon="2.13772">
        <ele>517.4</ele>
        <time>2020-08-29T07:03:23Z</time>
      </trkpt>
      <trkpt lat="42.82838" lon="2.13644">
        <ele>517.5</ele>
        <time>2020-08-29T07:03:53Z</time>
      </trkpt>
      <trkpt lat="42.82811" lon="2.13512">
        <ele>517.8</ele>
        <time>2020-08-29T07:04:28Z</time>
      </trkpt>
      <trkpt lat="42.8281" lon="2.1337">
        <ele>518.4</ele>
        <time>2020-08-29T07:05:04Z</time>
      </trkpt>
      <trkpt lat="42.82851" lon="2.13255">
        <ele>518.7</ele>
        <time>2020-08-29T07:05:34Z</time>
      </trkpt>
      <trkpt lat="42.82871" lon="2.13121">
        <ele>519</ele>
        <time>2020-08-29T07:06:09Z</time>
      </trkpt>
      <trkpt lat="42.82885" lon="2.1299">
        <ele>519.5</ele>
        <time>2020-08-29T07:06:39Z</time>
      </trkpt>
      <trkpt lat="42.82869" lon="2.12857">
        <ele>520.1</ele>
        <time>2020-08-29T07:07:09Z</time>
      </trkpt>
      <trkpt lat="42.82863" lon="2.12734">
        <ele>520.8</ele>
        <time>2020-08-29T07:07:39Z</time>
      </trkpt>
      <trkpt lat="42.8287" lon="2.12605">
        <ele>521.2</ele>
        <time>2020-08-29T07:08:09Z</time>
      </trkpt>
      <trkpt lat="42.82914" lon="2.12494">
        <ele>521.6</ele>
        <time>2020-08-29T07:08:39Z</time>
      </trkpt>
      <trkpt lat="42.82949" lon="2.12377">
        <ele>522</ele>
        <time>2020-08-29T07:09:09Z</time>
      </trkpt>
      <trkpt lat="42.82984" lon="2.12261">
        <ele>522.5</ele>
        <time>2020-08-29T07:09:39Z</time>
      </trkpt>
      <trkpt lat="42.82995" lon="2.12125">
        <ele>523.1</ele>
        <time>2020-08-29T07:10:09Z</time>
      </trkpt>
      <trkpt lat="42.83048" lon="2.1202">
        <ele>523.8</ele>
        <time>2020-08-29T07:10:39Z</time>
      </trkpt>
      <trkpt lat="42.83074" lon="2.119">
        <ele>524.5</ele>
        <time>2020-08-29T07:11:09Z</time>
      </trkpt>
      <trkpt lat="42.83053" lon="2.11778">
        <ele>525.2</ele>
        <time>2020-08-29T07:11:39Z</time>
      </trkpt>
      <trkpt lat="42.83069" lon="2.11638">
        <ele>526.2</ele>
        <time>2020-08-29T07:12:14Z</time>
      </trkpt>
      <trkpt lat="42.83107" lon="2.11523">
        <ele>527</ele>
        <time>2020-08-29T07:12:44Z</time>
      </trkpt>
      <trkpt lat="42.83125" lon="2.11383">
        <ele>528</ele>
        <time>2020-08-29T07:13:19Z</time>
      </trkpt>
      <trkpt lat="42.83146" lon="2.11241">
        <ele>528.9</ele>
        <time>2020-08-29T07:13:54Z</time>
      </trkpt>
      <trkpt lat="42.8316" lon="2.1112">
        <ele>529.7</ele>
        <time>2020-08-29T07:14:24Z</time>
      </trkpt>
      <trkpt lat="42.83183" lon="2.10995">
        <ele>530.6</ele>
        <time>2020-08-29T07:14:54Z</time>
      </trkpt>
      <trkpt lat="42.83249" lon="2.10887">
        <ele>531.5</ele>
        <time>2020-08-29T07:15:29Z</time>
      </trkpt>
      <trkpt lat="42.8327" lon="2.10756">
        <ele>532.4</ele>
        <time>2020-08-29T07:15:59Z</time>
      </trkpt>
      <trkpt lat="42.83261" lon="2.10615">
        <ele>533.6</ele>
        <time>2020-08-29T07:16:34Z</time>
      </trkpt>
      <trkpt lat="42.83205" lon="2.10498">
        <ele>534.8</ele>
        <time>2020-08-29T07:17:04Z</time>
      </trkpt>
      <trkpt lat="42.83168" lon="2.10377">
        <ele>535.7</ele>
        <time>2020-08-29T07:17:34Z</time>
      </trkpt>
      <trkpt lat="42.83101" lon="2.10288">
        <ele>536.7</ele>
        <time>2020-08-29T07:18:09Z</time>
      </trkpt>
      <trkpt lat="42.83032" lon="2.10196">
        <ele>538.3</ele>
        <time>2020-08-29T07:18:48Z</time>
      </trkpt>
      <trkpt lat="42.83017" lon="2.10064">
        <ele>541</ele>
        <time>2020-08-29T07:19:28Z</time>
      </trkpt>
      <trkpt lat="42.82967" lon="2.09942">
        <ele>544.5</ele>
        <time>2020-08-29T07:20:08Z</time>
      </trkpt>
      <trkpt lat="42.82908" lon="2.09845">
        <ele>547.5</ele>
        <time>2020-08-29T07:20:43Z</time>
      </trkpt>
      <trkpt lat="42.8284" lon="2.09741">
        <ele>550.4</ele>
        <time>2020-08-29T07:21:23Z</time>
      </trkpt>
      <trkpt lat="42.82771" lon="2.09643">
        <ele>552.8</ele>
        <time>2020-08-29T07:22:03Z</time>
      </trkpt>
      <trkpt lat="42.82706" lon="2.09541">
        <ele>555</ele>
        <time>2020-08-29T07:22:43Z</time>
      </trkpt>
      <trkpt lat="42.82715" lon="2.09418">
        <ele>557</ele>
        <time>2020-08-29T07:23:23Z</time>
      </trkpt>
      <trkpt lat="42.82725" lon="2.09293">
        <ele>558.7</ele>
        <time>2020-08-29T07:24:03Z</time>
      </trkpt>
      <trkpt lat="42.82709" lon="2.09159">
        <ele>560.2</ele>
        <time>2020-08-29T07:24:43Z</time>
      </trkpt>
      <trkpt lat="42.82711" lon="2.09034">
        <ele>561.5</ele>
        <time>2020-08-29T07:25:18Z</time>
      </trkpt>
      <trkpt lat="42.82743" lon="2.08909">
        <ele>563.3</ele>
        <time>2020-08-29T07:25:58Z</time>
      </trkpt>
      <trkpt lat="42.82716" lon="2.08784">
        <ele>565.4</ele>
        <time>2020-08-29T07:26:51Z</time>
      </trkpt>
      <trkpt lat="42.82728" lon="2.08652">
        <ele>567.5</ele>
        <time>2020-08-29T07:27:31Z</time>
      </trkpt>
      <trkpt lat="42.82801" lon="2.08565">
        <ele>569.8</ele>
        <time>2020-08-29T07:28:16Z</time>
      </trkpt>
      <trkpt lat="42.82849" lon="2.08449">
        <ele>572.8</ele>
        <time>2020-08-29T07:29:02Z</time>
      </trkpt>
      <trkpt lat="42.82848" lon="2.08324">
        <ele>575.3</ele>
        <time>2020-08-29T07:29:42Z</time>
      </trkpt>
      <trkpt lat="42.82881" lon="2.082">
        <ele>577.8</ele>
        <time>2020-08-29T07:30:28Z</time>
      </trkpt>
      <trkpt lat="42.82942" lon="2.08108">
        <ele>581</ele>
        <time>2020-08-29T07:31:15Z</time>
      </trkpt>
      <trkpt lat="42.8297" lon="2.07987">
        <ele>584.1</ele>
        <time>2020-08-29T07:32:01Z</time>
      </trkpt>
      <trkpt lat="42.82992" lon="2.07865">
        <ele>587.5</ele>
        <time>2020-08-29T07:32:48Z</time>
      </trkpt>
      <trkpt lat="42.83049" lon="2.07768">
        <ele>591.2</ele>
        <time>2020-08-29T07:33:34Z</time>
      </trkpt>
      <trkpt lat="42.83084" lon="2.07654">
        <ele>594.9</ele>
        <time>2020-08-29T07:34:19Z</time>
      </trkpt>
      <trkpt lat="42.83123" lon="2.07541">
        <ele>598.2</ele>
        <time>2020-08-29T07:35:04Z</time>
      </trkpt>
      <trkpt lat="42.83164" lon="2.07431">
        <ele>601.6</ele>
        <time>2020-08-29T07:35:49Z</time>
      </trkpt>
      <trkpt lat="42.83211" lon="2.07327">
        <ele>605.3</ele>
        <time>2020-08-29T07:36:34Z</time>
      </trkpt>
      <trkpt lat="42.83259" lon="2.07208">
        <ele>610.6</ele>
        <time>2020-08-29T07:37:25Z</time>
      </trkpt>
      <trkpt lat="42.83309" lon="2.07103">
        <ele>616.2</ele>
        <time>2020-08-29T07:38:13Z</time>
      </trkpt>
      <trkpt lat="42.83387" lon="2.07025">
        <ele>622.8</ele>
        <time>2020-08-29T07:39:01Z</time>
      </trkpt>
      <trkpt lat="42.83456" lon="2.06935">
        <ele>632.2</ele>
        <time>2020-08-29T07:39:53Z</time>
      </trkpt>
      <trkpt lat="42.83479" lon="2.06803">
        <ele>638.7</ele>
        <time>2020-08-29T07:40:33Z</time>
      </trkpt>
      <trkpt lat="42.835" lon="2.0668">
        <ele>657.6</ele>
        <time>2020-08-29T07:41:26Z</time>
      </trkpt>
      <trkpt lat="42.83537" lon="2.06554">
        <ele>666</ele>
        <time>2020-08-29T07:42:16Z</time>
      </trkpt>
      <trkpt lat="42.83603" lon="2.06458">
        <ele>669.7</ele>
        <time>2020-08-29T07:42:56Z</time>
      </trkpt>
      <trkpt lat="42.83697" lon="2.06445">
        <ele>670.7</ele>
        <time>2020-08-29T07:43:36Z</time>
      </trkpt>
      <trkpt lat="42.83692" lon="2.06321">
        <ele>673.8</ele>
        <time>2020-08-29T07:44:16Z</time>
      </trkpt>
      <trkpt lat="42.83625" lon="2.06187">
        <ele>679</ele>
        <time>2020-08-29T07:44:58Z</time>
      </trkpt>
      <trkpt lat="42.83589" lon="2.0606">
        <ele>683.2</ele>
        <time>2020-08-29T07:45:39Z</time>
      </trkpt>
      <trkpt lat="42.8352" lon="2.05974">
        <ele>685.8</ele>
        <time>2020-08-29T07:46:13Z</time>
      </trkpt>
      <trkpt lat="42.83471" lon="2.05851">
        <ele>688.6</ele>
        <time>2020-08-29T07:46:53Z</time>
      </trkpt>
      <trkpt lat="42.83467" lon="2.05711">
        <ele>690.7</ele>
        <time>2020-08-29T07:47:23Z</time>
      </trkpt>
      <trkpt lat="42.83401" lon="2.0562">
        <ele>691.1</ele>
        <time>2020-08-29T07:47:53Z</time>
      </trkpt>
      <trkpt lat="42.83302" lon="2.05658">
        <ele>689.4</ele>
        <time>2020-08-29T07:48:32Z</time>
      </trkpt>
      <trkpt lat="42.83202" lon="2.05618">
        <ele>686.1</ele>
        <time>2020-08-29T07:48:57Z</time>
      </trkpt>
      <trkpt lat="42.8311" lon="2.0566">
        <ele>684.2</ele>
        <time>2020-08-29T07:49:27Z</time>
      </trkpt>
      <trkpt lat="42.83034" lon="2.0556">
        <ele>683.4</ele>
        <time>2020-08-29T07:50:07Z</time>
      </trkpt>
      <trkpt lat="42.82944" lon="2.0549">
        <ele>684.1</ele>
        <time>2020-08-29T07:50:37Z</time>
      </trkpt>
      <trkpt lat="42.82844" lon="2.0549">
        <ele>687.8</ele>
        <time>2020-08-29T07:51:17Z</time>
      </trkpt>
      <trkpt lat="42.82752" lon="2.05442">
        <ele>690</ele>
        <time>2020-08-29T07:52:02Z</time>
      </trkpt>
      <trkpt lat="42.82661" lon="2.05392">
        <ele>693.3</ele>
        <time>2020-08-29T07:52:32Z</time>
      </trkpt>
      <trkpt lat="42.82625" lon="2.05259">
        <ele>694.9</ele>
        <time>2020-08-29T07:53:07Z</time>
      </trkpt>
      <trkpt lat="42.82609" lon="2.05121">
        <ele>695.8</ele>
        <time>2020-08-29T07:53:37Z</time>
      </trkpt>
      <trkpt lat="42.8259" lon="2.04965">
        <ele>698.9</ele>
        <time>2020-08-29T07:54:42Z</time>
      </trkpt>
      <trkpt lat="42.82576" lon="2.04842">
        <ele>705</ele>
        <time>2020-08-29T07:57:07Z</time>
      </trkpt>
      <trkpt lat="42.82522" lon="2.04727">
        <ele>705.8</ele>
        <time>2020-08-29T07:57:47Z</time>
      </trkpt>
      <trkpt lat="42.82517" lon="2.04604">
        <ele>706</ele>
        <time>2020-08-29T07:58:22Z</time>
      </trkpt>
      <trkpt lat="42.82512" lon="2.04472">
        <ele>707</ele>
        <time>2020-08-29T07:59:08Z</time>
      </trkpt>
      <trkpt lat="42.82478" lon="2.04352">
        <ele>708.6</ele>
        <time>2020-08-29T07:59:48Z</time>
      </trkpt>
      <trkpt lat="42.82418" lon="2.0425">
        <ele>711.1</ele>
        <time>2020-08-29T08:00:18Z</time>
      </trkpt>
      <trkpt lat="42.82353" lon="2.04159">
        <ele>713.5</ele>
        <time>2020-08-29T08:00:48Z</time>
      </trkpt>
      <trkpt lat="42.8229" lon="2.04043">
        <ele>717.5</ele>
        <time>2020-08-29T08:01:18Z</time>
      </trkpt>
      <trkpt lat="42.82218" lon="2.03941">
        <ele>721.1</ele>
        <time>2020-08-29T08:01:48Z</time>
      </trkpt>
      <trkpt lat="42.82136" lon="2.03859">
        <ele>723.8</ele>
        <time>2020-08-29T08:02:33Z</time>
      </trkpt>
      <trkpt lat="42.82065" lon="2.0378">
        <ele>725.1</ele>
        <time>2020-08-29T08:03:13Z</time>
      </trkpt>
      <trkpt lat="42.82013" lon="2.03677">
        <ele>726</ele>
        <time>2020-08-29T08:03:53Z</time>
      </trkpt>
      <trkpt lat="42.8191" lon="2.0367">
        <ele>726.6</ele>
        <time>2020-08-29T08:04:28Z</time>
      </trkpt>
      <trkpt lat="42.81812" lon="2.03706">
        <ele>727.9</ele>
        <time>2020-08-29T08:05:03Z</time>
      </trkpt>
      <trkpt lat="42.81732" lon="2.03799">
        <ele>728.6</ele>
        <time>2020-08-29T08:05:38Z</time>
      </trkpt>
      <trkpt lat="42.81631" lon="2.03794">
        <ele>728.9</ele>
        <time>2020-08-29T08:06:08Z</time>
      </trkpt>
      <trkpt lat="42.81539" lon="2.03751">
        <ele>729.2</ele>
        <time>2020-08-29T08:06:33Z</time>
      </trkpt>
      <trkpt lat="42.81441" lon="2.03693">
        <ele>729.6</ele>
        <time>2020-08-29T08:07:03Z</time>
      </trkpt>
      <trkpt lat="42.81359" lon="2.03627">
        <ele>730</ele>
        <time>2020-08-29T08:07:33Z</time>
      </trkpt>
      <trkpt lat="42.81284" lon="2.03552">
        <ele>731</ele>
        <time>2020-08-29T08:08:03Z</time>
      </trkpt>
      <trkpt lat="42.81188" lon="2.03498">
        <ele>731.9</ele>
        <time>2020-08-29T08:08:33Z</time>
      </trkpt>
      <trkpt lat="42.8109" lon="2.03456">
        <ele>732.6</ele>
        <time>2020-08-29T08:09:03Z</time>
      </trkpt>
      <trkpt lat="42.80997" lon="2.03414">
        <ele>733.8</ele>
        <time>2020-08-29T08:09:48Z</time>
      </trkpt>
      <trkpt lat="42.80958" lon="2.03302">
        <ele>735.1</ele>
        <time>2020-08-29T08:10:23Z</time>
      </trkpt>
      <trkpt lat="42.809" lon="2.03206">
        <ele>736.9</ele>
        <time>2020-08-29T08:11:03Z</time>
      </trkpt>
      <trkpt lat="42.80932" lon="2.03078">
        <ele>738.6</ele>
        <time>2020-08-29T08:11:49Z</time>
      </trkpt>
      <trkpt lat="42.8094" lon="2.02948">
        <ele>740</ele>
        <time>2020-08-29T08:12:29Z</time>
      </trkpt>
      <trkpt lat="42.80908" lon="2.02828">
        <ele>742.5</ele>
        <time>2020-08-29T08:13:16Z</time>
      </trkpt>
      <trkpt lat="42.80859" lon="2.0272">
        <ele>748.5</ele>
        <time>2020-08-29T08:14:02Z</time>
      </trkpt>
      <trkpt lat="42.80823" lon="2.0259">
        <ele>756.8</ele>
        <time>2020-08-29T08:14:48Z</time>
      </trkpt>
      <trkpt lat="42.8081" lon="2.02453">
        <ele>763.1</ele>
        <time>2020-08-29T08:15:33Z</time>
      </trkpt>
      <trkpt lat="42.80805" lon="2.02313">
        <ele>767</ele>
        <time>2020-08-29T08:16:08Z</time>
      </trkpt>
      <trkpt lat="42.80769" lon="2.02189">
        <ele>768.9</ele>
        <time>2020-08-29T08:16:43Z</time>
      </trkpt>
      <trkpt lat="42.80752" lon="2.02067">
        <ele>770.5</ele>
        <time>2020-08-29T08:17:18Z</time>
      </trkpt>
      <trkpt lat="42.8074" lon="2.01938">
        <ele>771.5</ele>
        <time>2020-08-29T08:17:53Z</time>
      </trkpt>
      <trkpt lat="42.8072" lon="2.01806">
        <ele>772.6</ele>
        <time>2020-08-29T08:18:33Z</time>
      </trkpt>
      <trkpt lat="42.80695" lon="2.01678">
        <ele>773.7</ele>
        <time>2020-08-29T08:19:13Z</time>
      </trkpt>
      <trkpt lat="42.80628" lon="2.01569">
        <ele>774.7</ele>
        <time>2020-08-29T08:19:48Z</time>
      </trkpt>
      <trkpt lat="42.80568" lon="2.01462">
        <ele>775.5</ele>
        <time>2020-08-29T08:20:23Z</time>
      </trkpt>
      <trkpt lat="42.80579" lon="2.01325">
        <ele>776.1</ele>
        <time>2020-08-29T08:20:58Z</time>
      </trkpt>
      <trkpt lat="42.80531" lon="2.01208">
        <ele>779.2</ele>
        <time>2020-08-29T08:21:49Z</time>
      </trkpt>
      <trkpt lat="42.80488" lon="2.01097">
        <ele>781.3</ele>
        <time>2020-08-29T08:22:38Z</time>
      </trkpt>
      <trkpt lat="42.80496" lon="2.00965">
        <ele>789.9</ele>
        <time>2020-08-29T08:23:41Z</time>
      </trkpt>
      <trkpt lat="42.8053" lon="2.0084">
        <ele>799</ele>
        <time>2020-08-29T08:24:53Z</time>
      </trkpt>
      <trkpt lat="42.80486" lon="2.00725">
        <ele>814.8</ele>
        <time>2020-08-29T08:25:59Z</time>
      </trkpt>
      <trkpt lat="42.80433" lon="2.0062">
        <ele>822.4</ele>
        <time>2020-08-29T08:27:02Z</time>
      </trkpt>
      <trkpt lat="42.80374" lon="2.00513">
        <ele>824.9</ele>
        <time>2020-08-29T08:28:01Z</time>
      </trkpt>
      <trkpt lat="42.80284" lon="2.00494">
        <ele>827.2</ele>
        <time>2020-08-29T08:28:52Z</time>
      </trkpt>
      <trkpt lat="42.80215" lon="2.00385">
        <ele>826.3</ele>
        <time>2020-08-29T08:29:32Z</time>
      </trkpt>
      <trkpt lat="42.80209" lon="2.00252">
        <ele>827.3</ele>
        <time>2020-08-29T08:30:12Z</time>
      </trkpt>
      <trkpt lat="42.80135" lon="2.00158">
        <ele>829.1</ele>
        <time>2020-08-29T08:30:52Z</time>
      </trkpt>
      <trkpt lat="42.80125" lon="2.00035">
        <ele>830.8</ele>
        <time>2020-08-29T08:31:27Z</time>
      </trkpt>
      <trkpt lat="42.80097" lon="1.99914">
        <ele>833</ele>
        <time>2020-08-29T08:32:07Z</time>
      </trkpt>
      <trkpt lat="42.80022" lon="1.99824">
        <ele>836</ele>
        <time>2020-08-29T08:33:07Z</time>
      </trkpt>
      <trkpt lat="42.79938" lon="1.9976">
        <ele>841</ele>
        <time>2020-08-29T08:33:59Z</time>
      </trkpt>
      <trkpt lat="42.79892" lon="1.99648">
        <ele>850.3</ele>
        <time>2020-08-29T08:34:40Z</time>
      </trkpt>
      <trkpt lat="42.79848" lon="1.99531">
        <ele>855.9</ele>
        <time>2020-08-29T08:35:20Z</time>
      </trkpt>
      <trkpt lat="42.79781" lon="1.99436">
        <ele>859.4</ele>
        <time>2020-08-29T08:36:05Z</time>
      </trkpt>
      <trkpt lat="42.79687" lon="1.99396">
        <ele>861.6</ele>
        <time>2020-08-29T08:36:51Z</time>
      </trkpt>
      <trkpt lat="42.79598" lon="1.99369">
        <ele>862.8</ele>
        <time>2020-08-29T08:37:31Z</time>
      </trkpt>
      <trkpt lat="42.79534" lon="1.99269">
        <ele>863.5</ele>
        <time>2020-08-29T08:38:16Z</time>
      </trkpt>
      <trkpt lat="42.79507" lon="1.9914">
        <ele>864.9</ele>
        <time>2020-08-29T08:39:07Z</time>
      </trkpt>
      <trkpt lat="42.79446" lon="1.99045">
        <ele>866.4</ele>
        <time>2020-08-29T08:39:47Z</time>
      </trkpt>
      <trkpt lat="42.79394" lon="1.98941">
        <ele>866.7</ele>
        <time>2020-08-29T08:40:27Z</time>
      </trkpt>
      <trkpt lat="42.79322" lon="1.98852">
        <ele>868.9</ele>
        <time>2020-08-29T08:41:06Z</time>
      </trkpt>
      <trkpt lat="42.7925" lon="1.98765">
        <ele>878</ele>
        <time>2020-08-29T08:41:52Z</time>
      </trkpt>
      <trkpt lat="42.79183" lon="1.9868">
        <ele>883.9</ele>
        <time>2020-08-29T08:42:38Z</time>
      </trkpt>
      <trkpt lat="42.79133" lon="1.98562">
        <ele>888.9</ele>
        <time>2020-08-29T08:43:33Z</time>
      </trkpt>
      <trkpt lat="42.79073" lon="1.98456">
        <ele>891.6</ele>
        <time>2020-08-29T08:44:21Z</time>
      </trkpt>
      <trkpt lat="42.79008" lon="1.98368">
        <ele>894.8</ele>
        <time>2020-08-29T08:45:11Z</time>
      </trkpt>
      <trkpt lat="42.7898" lon="1.98246">
        <ele>899.2</ele>
        <time>2020-08-29T08:46:12Z</time>
      </trkpt>
      <trkpt lat="42.78945" lon="1.98126">
        <ele>902.1</ele>
        <time>2020-08-29T08:47:11Z</time>
      </trkpt>
      <trkpt lat="42.78864" lon="1.98051">
        <ele>903.6</ele>
        <time>2020-08-29T08:47:56Z</time>
      </trkpt>
      <trkpt lat="42.78808" lon="1.97944">
        <ele>905.2</ele>
        <time>2020-08-29T08:48:47Z</time>
      </trkpt>
      <trkpt lat="42.78724" lon="1.97864">
        <ele>906.8</ele>
        <time>2020-08-29T08:49:32Z</time>
      </trkpt>
      <trkpt lat="42.78645" lon="1.97787">
        <ele>910.7</ele>
        <time>2020-08-29T08:50:18Z</time>
      </trkpt>
      <trkpt lat="42.78582" lon="1.97685">
        <ele>916.5</ele>
        <time>2020-08-29T08:51:14Z</time>
      </trkpt>
      <trkpt lat="42.78524" lon="1.97585">
        <ele>921.9</ele>
        <time>2020-08-29T08:52:11Z</time>
      </trkpt>
      <trkpt lat="42.78456" lon="1.97491">
        <ele>924.8</ele>
        <time>2020-08-29T08:53:18Z</time>
      </trkpt>
      <trkpt lat="42.78399" lon="1.97392">
        <ele>928.8</ele>
        <time>2020-08-29T08:54:25Z</time>
      </trkpt>
      <trkpt lat="42.78322" lon="1.97314">
        <ele>945.9</ele>
        <time>2020-08-29T08:55:44Z</time>
      </trkpt>
      <trkpt lat="42.78275" lon="1.97202">
        <ele>961.4</ele>
        <time>2020-08-29T08:56:52Z</time>
      </trkpt>
      <trkpt lat="42.78186" lon="1.97146">
        <ele>969.2</ele>
        <time>2020-08-29T08:57:55Z</time>
      </trkpt>
      <trkpt lat="42.78113" lon="1.97068">
        <ele>973.6</ele>
        <time>2020-08-29T08:58:55Z</time>
      </trkpt>
      <trkpt lat="42.78063" lon="1.96963">
        <ele>978.4</ele>
        <time>2020-08-29T08:59:47Z</time>
      </trkpt>
      <trkpt lat="42.77997" lon="1.96866">
        <ele>985</ele>
        <time>2020-08-29T09:00:50Z</time>
      </trkpt>
      <trkpt lat="42.77916" lon="1.96788">
        <ele>988.1</ele>
        <time>2020-08-29T09:01:52Z</time>
      </trkpt>
      <trkpt lat="42.77854" lon="1.96685">
        <ele>997.3</ele>
        <time>2020-08-29T09:03:10Z</time>
      </trkpt>
      <trkpt lat="42.77769" lon="1.96616">
        <ele>1004.1</ele>
        <time>2020-08-29T09:04:38Z</time>
      </trkpt>
      <trkpt lat="42.77679" lon="1.96582">
        <ele>1027.9</ele>
        <time>2020-08-29T09:11:18Z</time>
      </trkpt>
      <trkpt lat="42.77604" lon="1.96511">
        <ele>1041.8</ele>
        <time>2020-08-29T09:13:39Z</time>
      </trkpt>
      <trkpt lat="42.77516" lon="1.96468">
        <ele>1045.6</ele>
        <time>2020-08-29T09:14:53Z</time>
      </trkpt>
      <trkpt lat="42.77427" lon="1.96429">
        <ele>1050.4</ele>
        <time>2020-08-29T09:15:53Z</time>
      </trkpt>
      <trkpt lat="42.77333" lon="1.96418">
        <ele>1059.4</ele>
        <time>2020-08-29T09:16:51Z</time>
      </trkpt>
      <trkpt lat="42.7724" lon="1.96393">
        <ele>1067.1</ele>
        <time>2020-08-29T09:17:40Z</time>
      </trkpt>
      <trkpt lat="42.77142" lon="1.96405">
        <ele>1074</ele>
        <time>2020-08-29T09:18:25Z</time>
      </trkpt>
      <trkpt lat="42.77064" lon="1.96465">
        <ele>1079.5</ele>
        <time>2020-08-29T09:19:12Z</time>
      </trkpt>
      <trkpt lat="42.76966" lon="1.96485">
        <ele>1084</ele>
        <time>2020-08-29T09:19:57Z</time>
      </trkpt>
      <trkpt lat="42.76869" lon="1.96484">
        <ele>1090.5</ele>
        <time>2020-08-29T09:20:53Z</time>
      </trkpt>
      <trkpt lat="42.76775" lon="1.96494">
        <ele>1097.3</ele>
        <time>2020-08-29T09:22:03Z</time>
      </trkpt>
      <trkpt lat="42.76688" lon="1.96539">
        <ele>1103</ele>
        <time>2020-08-29T09:23:13Z</time>
      </trkpt>
      <trkpt lat="42.76599" lon="1.9659">
        <ele>1108</ele>
        <time>2020-08-29T09:24:26Z</time>
      </trkpt>
      <trkpt lat="42.76507" lon="1.96628">
        <ele>1116.8</ele>
        <time>2020-08-29T09:25:34Z</time>
      </trkpt>
      <trkpt lat="42.76412" lon="1.96631">
        <ele>1131.5</ele>
        <time>2020-08-29T09:26:42Z</time>
      </trkpt>
      <trkpt lat="42.76349" lon="1.96731">
        <ele>1148.1</ele>
        <time>2020-08-29T09:27:57Z</time>
      </trkpt>
      <trkpt lat="42.76311" lon="1.96848">
        <ele>1157.5</ele>
        <time>2020-08-29T09:29:09Z</time>
      </trkpt>
      <trkpt lat="42.76262" lon="1.9673">
        <ele>1168</ele>
        <time>2020-08-29T09:30:55Z</time>
      </trkpt>
      <trkpt lat="42.76198" lon="1.96633">
        <ele>1175.5</ele>
        <time>2020-08-29T09:32:16Z</time>
      </trkpt>
      <trkpt lat="42.76119" lon="1.96555">
        <ele>1184.8</ele>
        <time>2020-08-29T09:33:34Z</time>
      </trkpt>
      <trkpt lat="42.76042" lon="1.96477">
        <ele>1193.7</ele>
        <time>2020-08-29T09:34:52Z</time>
      </trkpt>
      <trkpt lat="42.75964" lon="1.96403">
        <ele>1202.2</ele>
        <time>2020-08-29T09:36:04Z</time>
      </trkpt>
      <trkpt lat="42.75907" lon="1.96298">
        <ele>1219.1</ele>
        <time>2020-08-29T09:37:19Z</time>
      </trkpt>
      <trkpt lat="42.75833" lon="1.96219">
        <ele>1229.5</ele>
        <time>2020-08-29T09:38:37Z</time>
      </trkpt>
      <trkpt lat="42.75752" lon="1.96148">
        <ele>1235.1</ele>
        <time>2020-08-29T09:39:50Z</time>
      </trkpt>
      <trkpt lat="42.75673" lon="1.96075">
        <ele>1241.2</ele>
        <time>2020-08-29T09:41:12Z</time>
      </trkpt>
      <trkpt lat="42.75589" lon="1.96014">
        <ele>1246.7</ele>
        <time>2020-08-29T09:42:32Z</time>
      </trkpt>
      <trkpt lat="42.75506" lon="1.9594">
        <ele>1253.7</ele>
        <time>2020-08-29T09:43:51Z</time>
      </trkpt>
      <trkpt lat="42.75422" lon="1.95877">
        <ele>1262.9</ele>
        <time>2020-08-29T09:45:13Z</time>
      </trkpt>
      <trkpt lat="42.75344" lon="1.95795">
        <ele>1279.5</ele>
        <time>2020-08-29T09:46:40Z</time>
      </trkpt>
      <trkpt lat="42.75252" lon="1.95841">
        <ele>1294</ele>
        <time>2020-08-29T09:48:23Z</time>
      </trkpt>
      <trkpt lat="42.75164" lon="1.95868">
        <ele>1311</ele>
        <time>2020-08-29T09:52:19Z</time>
      </trkpt>
      <trkpt lat="42.75073" lon="1.95861">
        <ele>1316.2</ele>
        <time>2020-08-29T09:53:29Z</time>
      </trkpt>
      <trkpt lat="42.75162" lon="1.95909">
        <ele>1337</ele>
        <time>2020-08-29T09:55:07Z</time>
      </trkpt>
      <trkpt lat="42.75256" lon="1.95901">
        <ele>1345.6</ele>
        <time>2020-08-29T09:56:02Z</time>
      </trkpt>
      <trkpt lat="42.75173" lon="1.95948">
        <ele>1353.2</ele>
        <time>2020-08-29T09:58:21Z</time>
      </trkpt>
      <trkpt lat="42.75084" lon="1.95987">
        <ele>1356.4</ele>
        <time>2020-08-29T09:59:31Z</time>
      </trkpt>
      <trkpt lat="42.74988" lon="1.96003">
        <ele>1361.8</ele>
        <time>2020-08-29T10:00:56Z</time>
      </trkpt>
      <trkpt lat="42.74894" lon="1.96023">
        <ele>1368.5</ele>
        <time>2020-08-29T10:02:14Z</time>
      </trkpt>
      <trkpt lat="42.74799" lon="1.96015">
        <ele>1376.5</ele>
        <time>2020-08-29T10:03:29Z</time>
      </trkpt>
      <trkpt lat="42.74715" lon="1.95959">
        <ele>1385.9</ele>
        <time>2020-08-29T10:04:42Z</time>
      </trkpt>
      <trkpt lat="42.74628" lon="1.95906">
        <ele>1394.1</ele>
        <time>2020-08-29T10:05:57Z</time>
      </trkpt>
      <trkpt lat="42.74534" lon="1.95933">
        <ele>1404.4</ele>
        <time>2020-08-29T10:07:10Z</time>
      </trkpt>
      <trkpt lat="42.74439" lon="1.95916">
        <ele>1415.9</ele>
        <time>2020-08-29T10:08:38Z</time>
      </trkpt>
      <trkpt lat="42.74403" lon="1.958">
        <ele>1424.9</ele>
        <time>2020-08-29T10:09:58Z</time>
      </trkpt>
      <trkpt lat="42.74342" lon="1.95702">
        <ele>1433.2</ele>
        <time>2020-08-29T10:11:17Z</time>
      </trkpt>
      <trkpt lat="42.74304" lon="1.95576">
        <ele>1441.2</ele>
        <time>2020-08-29T10:12:43Z</time>
      </trkpt>
      <trkpt lat="42.74399" lon="1.95557">
        <ele>1449.5</ele>
        <time>2020-08-29T10:14:42Z</time>
      </trkpt>
      <trkpt lat="42.74479" lon="1.9562">
        <ele>1454.8</ele>
        <time>2020-08-29T10:15:56Z</time>
      </trkpt>
      <trkpt lat="42.74563" lon="1.9568">
        <ele>1467.8</ele>
        <time>2020-08-29T10:17:05Z</time>
      </trkpt>
      <trkpt lat="42.74658" lon="1.957">
        <ele>1481.4</ele>
        <time>2020-08-29T10:18:23Z</time>
      </trkpt>
      <trkpt lat="42.74755" lon="1.95683">
        <ele>1491.6</ele>
        <time>2020-08-29T10:19:45Z</time>
      </trkpt>
      <trkpt lat="42.74842" lon="1.95634">
        <ele>1499.1</ele>
        <time>2020-08-29T10:21:01Z</time>
      </trkpt>
      <trkpt lat="42.74898" lon="1.95525">
        <ele>1504.5</ele>
        <time>2020-08-29T10:22:12Z</time>
      </trkpt>
      <trkpt lat="42.74966" lon="1.95427">
        <ele>1509.8</ele>
        <time>2020-08-29T10:23:23Z</time>
      </trkpt>
      <trkpt lat="42.75028" lon="1.95329">
        <ele>1514.5</ele>
        <time>2020-08-29T10:24:36Z</time>
      </trkpt>
      <trkpt lat="42.75064" lon="1.95209">
        <ele>1520.6</ele>
        <time>2020-08-29T10:26:10Z</time>
      </trkpt>
      <trkpt lat="42.75083" lon="1.95086">
        <ele>1524.2</ele>
        <time>2020-08-29T10:27:09Z</time>
      </trkpt>
      <trkpt lat="42.75111" lon="1.94959">
        <ele>1528.7</ele>
        <time>2020-08-29T10:28:20Z</time>
      </trkpt>
      <trkpt lat="42.75106" lon="1.9483">
        <ele>1533.3</ele>
        <time>2020-08-29T10:29:39Z</time>
      </trkpt>
      <trkpt lat="42.75047" lon="1.94731">
        <ele>1540.9</ele>
        <time>2020-08-29T10:30:49Z</time>
      </trkpt>
      <trkpt lat="42.75062" lon="1.94857">
        <ele>1562.4</ele>
        <time>2020-08-29T10:33:43Z</time>
      </trkpt>
      <trkpt lat="42.74995" lon="1.94759">
        <ele>1577.8</ele>
        <time>2020-08-29T10:37:06Z</time>
      </trkpt>
      <trkpt lat="42.74966" lon="1.94635">
        <ele>1596</ele>
        <time>2020-08-29T10:38:39Z</time>
      </trkpt>
      <trkpt lat="42.7498" lon="1.94511">
        <ele>1612.6</ele>
        <time>2020-08-29T10:40:03Z</time>
      </trkpt>
      <trkpt lat="42.74893" lon="1.94455">
        <ele>1621.3</ele>
        <time>2020-08-29T10:41:10Z</time>
      </trkpt>
      <trkpt lat="42.74839" lon="1.9435">
        <ele>1628.4</ele>
        <time>2020-08-29T10:42:17Z</time>
      </trkpt>
      <trkpt lat="42.74843" lon="1.94216">
        <ele>1634.3</ele>
        <time>2020-08-29T10:43:24Z</time>
      </trkpt>
      <trkpt lat="42.74836" lon="1.94089">
        <ele>1640.1</ele>
        <time>2020-08-29T10:44:39Z</time>
      </trkpt>
      <trkpt lat="42.7477" lon="1.93993">
        <ele>1643.4</ele>
        <time>2020-08-29T10:45:41Z</time>
      </trkpt>
      <trkpt lat="42.74755" lon="1.93857">
        <ele>1646.4</ele>
        <time>2020-08-29T10:52:29Z</time>
      </trkpt>
      <trkpt lat="42.74708" lon="1.9374">
        <ele>1647.1</ele>
        <time>2020-08-29T10:52:54Z</time>
      </trkpt>
      <trkpt lat="42.74624" lon="1.93664">
        <ele>1649.2</ele>
        <time>2020-08-29T10:54:51Z</time>
      </trkpt>
      <trkpt lat="42.74512" lon="1.93686">
        <ele>1647.6</ele>
        <time>2020-08-29T10:55:11Z</time>
      </trkpt>
      <trkpt lat="42.74483" lon="1.93536">
        <ele>1645.5</ele>
        <time>2020-08-29T10:55:31Z</time>
      </trkpt>
      <trkpt lat="42.74521" lon="1.93406">
        <ele>1644.3</ele>
        <time>2020-08-29T10:55:46Z</time>
      </trkpt>
      <trkpt lat="42.74495" lon="1.93276">
        <ele>1641.8</ele>
        <time>2020-08-29T10:56:01Z</time>
      </trkpt>
      <trkpt lat="42.74405" lon="1.93217">
        <ele>1638.5</ele>
        <time>2020-08-29T10:56:21Z</time>
      </trkpt>
      <trkpt lat="42.74305" lon="1.93155">
        <ele>1633.4</ele>
        <time>2020-08-29T10:56:41Z</time>
      </trkpt>
      <trkpt lat="42.74253" lon="1.93267">
        <ele>1628.8</ele>
        <time>2020-08-29T10:56:56Z</time>
      </trkpt>
      <trkpt lat="42.74159" lon="1.93297">
        <ele>1619.6</ele>
        <time>2020-08-29T10:57:16Z</time>
      </trkpt>
      <trkpt lat="42.74082" lon="1.93207">
        <ele>1613.7</ele>
        <time>2020-08-29T10:57:31Z</time>
      </trkpt>
      <trkpt lat="42.74136" lon="1.931">
        <ele>1607.9</ele>
        <time>2020-08-29T10:57:46Z</time>
      </trkpt>
      <trkpt lat="42.74137" lon="1.92943">
        <ele>1598.6</ele>
        <time>2020-08-29T10:58:01Z</time>
      </trkpt>
      <trkpt lat="42.7411" lon="1.92768">
        <ele>1588.1</ele>
        <time>2020-08-29T10:58:16Z</time>
      </trkpt>
      <trkpt lat="42.74056" lon="1.92604">
        <ele>1579.2</ele>
        <time>2020-08-29T10:58:31Z</time>
      </trkpt>
      <trkpt lat="42.74046" lon="1.92459">
        <ele>1561.3</ele>
        <time>2020-08-29T10:58:46Z</time>
      </trkpt>
      <trkpt lat="42.73983" lon="1.92344">
        <ele>1541.8</ele>
        <time>2020-08-29T10:59:01Z</time>
      </trkpt>
      <trkpt lat="42.73873" lon="1.92309">
        <ele>1527.5</ele>
        <time>2020-08-29T10:59:20Z</time>
      </trkpt>
      <trkpt lat="42.73752" lon="1.92282">
        <ele>1503.4</ele>
        <time>2020-08-29T10:59:40Z</time>
      </trkpt>
      <trkpt lat="42.7381" lon="1.92409">
        <ele>1489</ele>
        <time>2020-08-29T11:00:15Z</time>
      </trkpt>
      <trkpt lat="42.73863" lon="1.92526">
        <ele>1471.5</ele>
        <time>2020-08-29T11:00:40Z</time>
      </trkpt>
      <trkpt lat="42.73761" lon="1.92552">
        <ele>1453.4</ele>
        <time>2020-08-29T11:01:05Z</time>
      </trkpt>
      <trkpt lat="42.73655" lon="1.92531">
        <ele>1440.3</ele>
        <time>2020-08-29T11:01:20Z</time>
      </trkpt>
      <trkpt lat="42.73611" lon="1.92661">
        <ele>1432.5</ele>
        <time>2020-08-29T11:01:40Z</time>
      </trkpt>
      <trkpt lat="42.73625" lon="1.92801">
        <ele>1428</ele>
        <time>2020-08-29T11:01:55Z</time>
      </trkpt>
      <trkpt lat="42.73525" lon="1.92702">
        <ele>1404.3</ele>
        <time>2020-08-29T11:02:40Z</time>
      </trkpt>
      <trkpt lat="42.7344" lon="1.92624">
        <ele>1381.9</ele>
        <time>2020-08-29T11:03:17Z</time>
      </trkpt>
      <trkpt lat="42.73357" lon="1.92497">
        <ele>1365.3</ele>
        <time>2020-08-29T11:03:32Z</time>
      </trkpt>
      <trkpt lat="42.73323" lon="1.92379">
        <ele>1354.3</ele>
        <time>2020-08-29T11:03:42Z</time>
      </trkpt>
      <trkpt lat="42.7324" lon="1.92277">
        <ele>1335.1</ele>
        <time>2020-08-29T11:03:57Z</time>
      </trkpt>
      <trkpt lat="42.73156" lon="1.92131">
        <ele>1322</ele>
        <time>2020-08-29T11:04:12Z</time>
      </trkpt>
      <trkpt lat="42.7309" lon="1.91982">
        <ele>1310.8</ele>
        <time>2020-08-29T11:04:27Z</time>
      </trkpt>
      <trkpt lat="42.73003" lon="1.91849">
        <ele>1291.2</ele>
        <time>2020-08-29T11:05:43Z</time>
      </trkpt>
      <trkpt lat="42.72904" lon="1.91716">
        <ele>1284.7</ele>
        <time>2020-08-29T11:05:58Z</time>
      </trkpt>
      <trkpt lat="42.72812" lon="1.91648">
        <ele>1278.4</ele>
        <time>2020-08-29T11:06:13Z</time>
      </trkpt>
      <trkpt lat="42.72758" lon="1.91543">
        <ele>1274.4</ele>
        <time>2020-08-29T11:06:28Z</time>
      </trkpt>
      <trkpt lat="42.72693" lon="1.91421">
        <ele>1268.2</ele>
        <time>2020-08-29T11:06:43Z</time>
      </trkpt>
      <trkpt lat="42.72631" lon="1.91321">
        <ele>1262.7</ele>
        <time>2020-08-29T11:06:58Z</time>
      </trkpt>
      <trkpt lat="42.72542" lon="1.91244">
        <ele>1255.8</ele>
        <time>2020-08-29T11:07:13Z</time>
      </trkpt>
      <trkpt lat="42.72456" lon="1.91123">
        <ele>1244.4</ele>
        <time>2020-08-29T11:07:28Z</time>
      </trkpt>
      <trkpt lat="42.72407" lon="1.90999">
        <ele>1233.7</ele>
        <time>2020-08-29T11:07:38Z</time>
      </trkpt>
      <trkpt lat="42.72377" lon="1.90856">
        <ele>1228.5</ele>
        <time>2020-08-29T11:07:48Z</time>
      </trkpt>
      <trkpt lat="42.7237" lon="1.90722">
        <ele>1220</ele>
        <time>2020-08-29T11:07:58Z</time>
      </trkpt>
      <trkpt lat="42.72393" lon="1.90574">
        <ele>1209.3</ele>
        <time>2020-08-29T11:08:13Z</time>
      </trkpt>
      <trkpt lat="42.72418" lon="1.90411">
        <ele>1202</ele>
        <time>2020-08-29T11:08:28Z</time>
      </trkpt>
      <trkpt lat="42.72449" lon="1.90235">
        <ele>1192.8</ele>
        <time>2020-08-29T11:08:43Z</time>
      </trkpt>
      <trkpt lat="42.72454" lon="1.90108">
        <ele>1187.2</ele>
        <time>2020-08-29T11:08:53Z</time>
      </trkpt>
      <trkpt lat="42.72456" lon="1.89985">
        <ele>1181.9</ele>
        <time>2020-08-29T11:09:03Z</time>
      </trkpt>
      <trkpt lat="42.72393" lon="1.89889">
        <ele>1159.3</ele>
        <time>2020-08-29T11:11:47Z</time>
      </trkpt>
      <trkpt lat="42.72393" lon="1.89734">
        <ele>1152.4</ele>
        <time>2020-08-29T11:12:02Z</time>
      </trkpt>
      <trkpt lat="42.72375" lon="1.89595">
        <ele>1145.2</ele>
        <time>2020-08-29T11:12:17Z</time>
      </trkpt>
      <trkpt lat="42.72383" lon="1.89453">
        <ele>1130.5</ele>
        <time>2020-08-29T11:12:32Z</time>
      </trkpt>
      <trkpt lat="42.72429" lon="1.8934">
        <ele>1122.3</ele>
        <time>2020-08-29T11:12:52Z</time>
      </trkpt>
    </trkseg>
  </trk>
</gpx>